createdAt,value
2018-12-22T00:00:15.989Z,0
2018-12-22T00:01:26.119Z,0
2018-12-22T00:02:36.214Z,0
2018-12-22T00:03:46.274Z,0
2018-12-22T00:04:56.360Z,0
2018-12-22T00:06:07.180Z,0
2018-12-22T00:07:17.312Z,0
2018-12-22T00:08:27.668Z,0
2018-12-22T00:09:37.783Z,0
2018-12-22T00:10:47.879Z,0
2018-12-22T00:11:58.060Z,0
2018-12-22T00:13:08.222Z,0
2018-12-22T00:14:18.486Z,0
2018-12-22T00:15:28.627Z,0
2018-12-22T00:16:38.726Z,0
2018-12-22T00:17:48.641Z,0
2018-12-22T00:18:59.059Z,0
2018-12-22T00:20:09.294Z,0
2018-12-22T00:21:19.353Z,0
2018-12-22T00:22:29.159Z,0
2018-12-22T00:23:39.229Z,0
2018-12-22T00:24:49.271Z,0
2018-12-22T00:25:59.426Z,0
2018-12-22T00:27:09.240Z,0
2018-12-22T00:28:26.929Z,0
2018-12-22T00:29:36.737Z,0
2018-12-22T00:30:46.814Z,0
2018-12-22T00:31:56.892Z,0
2018-12-22T00:33:06.965Z,0
2018-12-22T00:34:17.017Z,0
2018-12-22T00:35:27.062Z,0
2018-12-22T00:36:36.862Z,0
2018-12-22T00:37:46.473Z,0
2018-12-22T00:38:56.661Z,0
2018-12-22T00:40:06.786Z,0
2018-12-22T00:41:16.352Z,0
2018-12-22T00:42:26.467Z,0
2018-12-22T00:43:36.539Z,0
2018-12-22T00:44:46.663Z,0
2018-12-22T00:45:56.473Z,0
2018-12-22T00:47:06.526Z,0
2018-12-22T00:48:16.629Z,0
2018-12-22T00:49:26.703Z,0
2018-12-22T00:50:36.528Z,0
2018-12-22T00:51:46.590Z,0
2018-12-22T00:52:56.948Z,0
2018-12-22T00:54:06.780Z,0
2018-12-22T00:55:16.991Z,0
2018-12-22T00:56:26.799Z,0
2018-12-22T00:57:36.849Z,0
2018-12-22T00:58:46.713Z,0
2018-12-22T00:59:56.533Z,0
2018-12-22T01:01:06.364Z,0
2018-12-22T01:02:16.188Z,0
2018-12-22T01:03:26.121Z,0
2018-12-22T01:04:36.197Z,0
2018-12-22T01:05:46.014Z,0
2018-12-22T01:06:57.617Z,0
2018-12-22T01:08:10.888Z,0
2018-12-22T01:09:21.021Z,0
2018-12-22T01:10:31.118Z,0
2018-12-22T01:11:41.163Z,0
2018-12-22T01:12:51.246Z,0
2018-12-22T01:14:01.074Z,0
2018-12-22T01:15:12.797Z,0
2018-12-22T01:16:22.619Z,0
2018-12-22T01:17:32.802Z,0
2018-12-22T01:18:42.925Z,0
2018-12-22T01:19:52.983Z,0
2018-12-22T01:21:03.884Z,0
2018-12-22T01:22:13.953Z,0
2018-12-22T01:23:24.017Z,0
2018-12-22T01:24:34.102Z,0
2018-12-22T01:25:44.213Z,0
2018-12-22T01:26:54.011Z,0
2018-12-22T01:28:06.034Z,0
2018-12-22T01:29:16.332Z,0
2018-12-22T01:30:26.168Z,0
2018-12-22T01:31:36.225Z,0
2018-12-22T01:32:46.275Z,0
2018-12-22T01:33:56.360Z,0
2018-12-22T01:35:06.543Z,0
2018-12-22T01:36:16.616Z,0
2018-12-22T01:37:26.674Z,0
2018-12-22T01:38:36.745Z,0
2018-12-22T01:39:46.794Z,0
2018-12-22T01:40:56.866Z,0
2018-12-22T01:42:06.941Z,0
2018-12-22T01:43:17.014Z,0
2018-12-22T01:44:27.079Z,0
2018-12-22T01:45:37.161Z,0
2018-12-22T01:46:46.955Z,0
2018-12-22T01:47:56.850Z,0
2018-12-22T01:49:07.818Z,0
2018-12-22T01:50:17.970Z,0
2018-12-22T01:51:28.112Z,0
2018-12-22T01:52:38.416Z,0
2018-12-22T01:53:48.225Z,0
2018-12-22T01:54:58.297Z,0
2018-12-22T01:56:08.378Z,0
2018-12-22T01:57:18.560Z,0
2018-12-22T01:58:28.639Z,0
2018-12-22T01:59:38.755Z,0
2018-12-22T02:00:48.866Z,0
2018-12-22T02:01:58.924Z,0
2018-12-22T02:03:08.749Z,0
2018-12-22T02:04:18.828Z,0
2018-12-22T02:05:28.882Z,0
2018-12-22T02:06:38.988Z,0
2018-12-22T02:07:48.818Z,0
2018-12-22T02:08:58.890Z,0
2018-12-22T02:10:08.938Z,0
2018-12-22T02:11:19.000Z,0
2018-12-22T02:12:29.073Z,0
2018-12-22T02:13:38.960Z,0
2018-12-22T02:14:48.769Z,0
2018-12-22T02:15:58.341Z,0
2018-12-22T02:17:08.403Z,0
2018-12-22T02:18:18.488Z,0
2018-12-22T02:19:28.540Z,0
2018-12-22T02:20:38.602Z,0
2018-12-22T02:21:48.540Z,0
2018-12-22T02:22:58.602Z,0
2018-12-22T02:24:08.650Z,0
2018-12-22T02:25:18.444Z,0
2018-12-22T02:26:28.523Z,0
2018-12-22T02:27:38.579Z,0
2018-12-22T02:28:56.329Z,0
2018-12-22T02:30:07.179Z,0
2018-12-22T02:31:17.255Z,0
2018-12-22T02:32:28.114Z,0
2018-12-22T02:33:38.387Z,0
2018-12-22T02:34:48.230Z,0
2018-12-22T02:35:58.318Z,0
2018-12-22T02:37:08.430Z,0
2018-12-22T02:38:18.510Z,0
2018-12-22T02:39:28.633Z,0
2018-12-22T02:40:38.775Z,0
2018-12-22T02:41:48.862Z,0
2018-12-22T02:42:59.115Z,0
2018-12-22T02:44:09.224Z,0
2018-12-22T02:45:19.669Z,0
2018-12-22T02:46:29.751Z,0
2018-12-22T02:47:40.058Z,0
2018-12-22T02:48:50.137Z,0
2018-12-22T02:50:00.430Z,0
2018-12-22T02:51:10.288Z,0
2018-12-22T02:52:20.362Z,0
2018-12-22T02:53:30.465Z,0
2018-12-22T02:54:40.563Z,0
2018-12-22T02:55:50.650Z,0
2018-12-22T02:57:01.162Z,0
2018-12-22T02:58:11.232Z,0
2018-12-22T02:59:21.314Z,0
2018-12-22T03:00:31.376Z,0
2018-12-22T03:01:41.650Z,0
2018-12-22T03:02:51.796Z,0
2018-12-22T03:35:03.134Z,0
2018-12-22T03:36:12.946Z,0
2018-12-22T03:37:22.743Z,0
2018-12-22T03:38:32.862Z,0
2018-12-22T03:39:42.692Z,0
2018-12-22T03:40:52.758Z,0
2018-12-22T03:42:02.823Z,0
2018-12-22T03:43:12.890Z,0
2018-12-22T03:44:22.731Z,0
2018-12-22T03:45:32.642Z,0
2018-12-22T03:46:42.340Z,0
2018-12-22T03:47:51.985Z,0
2018-12-22T03:49:02.059Z,0
2018-12-22T03:50:12.112Z,0
2018-12-22T03:51:22.177Z,0
2018-12-22T03:52:32.083Z,0
2018-12-22T03:53:42.144Z,0
2018-12-22T03:54:51.976Z,0
2018-12-22T03:56:02.412Z,0
2018-12-22T03:57:12.210Z,0
2018-12-22T03:58:22.067Z,0
2018-12-22T03:59:34.589Z,0
2018-12-22T04:00:44.650Z,0
2018-12-22T04:01:54.563Z,0
2018-12-22T04:03:04.368Z,0
2018-12-22T04:04:14.477Z,0
2018-12-22T04:05:24.541Z,0
2018-12-22T04:06:34.619Z,0
2018-12-22T04:07:44.807Z,0
2018-12-22T04:08:54.884Z,0
2018-12-22T04:10:05.963Z,0
2018-12-22T04:11:16.136Z,0
2018-12-22T04:12:26.237Z,0
2018-12-22T04:13:35.794Z,0
2018-12-22T04:14:45.850Z,0
2018-12-22T04:15:55.941Z,0
2018-12-22T04:17:06.992Z,0
2018-12-22T04:18:17.053Z,0
2018-12-22T04:19:27.221Z,0
2018-12-22T04:20:37.535Z,0
2018-12-22T04:21:47.606Z,0
2018-12-22T04:22:57.671Z,0
2018-12-22T04:24:07.745Z,0
2018-12-22T04:25:17.540Z,0
2018-12-22T04:26:27.615Z,0
2018-12-22T04:27:37.420Z,0
2018-12-22T04:28:47.501Z,0
2018-12-22T04:29:57.809Z,0
2018-12-22T04:31:07.885Z,0
2018-12-22T04:32:18.089Z,0
2018-12-22T04:33:28.223Z,0
2018-12-22T04:34:38.299Z,0
2018-12-22T04:35:48.349Z,0
2018-12-22T04:36:58.420Z,0
2018-12-22T04:38:08.337Z,0
2018-12-22T04:39:18.616Z,0
2018-12-22T04:40:28.688Z,0
2018-12-22T04:41:38.506Z,0
2018-12-22T04:42:48.622Z,0
2018-12-22T04:43:58.698Z,0
2018-12-22T04:45:08.560Z,0
2018-12-22T04:46:18.351Z,0
2018-12-22T04:47:28.273Z,0
2018-12-22T04:48:38.100Z,0
2018-12-22T04:49:48.166Z,0
2018-12-22T04:50:57.999Z,0
2018-12-22T04:52:08.312Z,0
2018-12-22T04:53:18.105Z,0
2018-12-22T04:54:28.264Z,0
2018-12-22T04:55:38.329Z,0
2018-12-22T04:56:48.438Z,0
2018-12-22T04:57:58.245Z,0
2018-12-22T04:59:10.861Z,0
2018-12-22T05:00:21.471Z,0
2018-12-22T05:01:31.518Z,0
2018-12-22T05:02:41.181Z,0
2018-12-22T05:03:51.043Z,0
2018-12-22T05:05:00.834Z,0
2018-12-22T05:06:10.436Z,0
2018-12-22T05:07:20.254Z,0
2018-12-22T05:08:30.330Z,0
2018-12-22T05:09:40.384Z,0
2018-12-22T05:10:50.450Z,0
2018-12-22T05:12:00.524Z,0
2018-12-22T05:13:10.587Z,0
2018-12-22T05:14:20.911Z,0
2018-12-22T05:15:30.972Z,0
2018-12-22T05:16:41.049Z,0
2018-12-22T05:17:51.130Z,0
2018-12-22T05:19:01.180Z,0
2018-12-22T05:20:11.306Z,0
2018-12-22T05:21:21.090Z,0
2018-12-22T05:22:31.150Z,0
2018-12-22T05:23:41.042Z,0
2018-12-22T05:24:51.134Z,0
2018-12-22T05:26:00.945Z,0
2018-12-22T05:27:10.997Z,0
2018-12-22T05:28:21.057Z,0
2018-12-22T05:29:30.879Z,0
2018-12-22T05:30:40.682Z,0
2018-12-22T05:31:50.752Z,0
2018-12-22T05:33:03.067Z,0
2018-12-22T05:34:13.381Z,0
2018-12-22T05:35:23.395Z,0
2018-12-22T05:36:33.468Z,0
2018-12-22T05:37:43.523Z,0
2018-12-22T05:38:53.331Z,0
2018-12-22T05:40:03.384Z,0
2018-12-22T05:41:13.425Z,0
2018-12-22T05:42:23.471Z,0
2018-12-22T05:43:33.517Z,0
2018-12-22T05:44:43.655Z,0
2018-12-22T05:45:53.474Z,0
2018-12-22T05:47:03.783Z,0
2018-12-22T05:48:13.847Z,0
2018-12-22T05:49:23.813Z,0
2018-12-22T05:50:34.080Z,0
2018-12-22T05:51:43.890Z,0
2018-12-22T05:52:53.709Z,0
2018-12-22T05:54:03.782Z,0
2018-12-22T05:55:13.913Z,0
2018-12-22T05:56:23.971Z,0
2018-12-22T05:57:34.032Z,0
2018-12-22T05:58:44.095Z,0
2018-12-22T06:00:02.927Z,0
2018-12-22T06:01:13.050Z,0
2018-12-22T06:02:23.094Z,0
2018-12-22T06:03:33.164Z,0
2018-12-22T06:04:43.226Z,0
2018-12-22T06:05:53.077Z,0
2018-12-22T06:07:03.370Z,0
2018-12-22T06:08:13.437Z,0
2018-12-22T06:09:23.258Z,0
2018-12-22T06:10:33.326Z,0
2018-12-22T06:11:43.269Z,0
2018-12-22T06:12:53.075Z,0
2018-12-22T06:14:05.305Z,0
2018-12-22T06:15:15.426Z,0
2018-12-22T06:16:25.479Z,0
2018-12-22T06:17:37.209Z,0
2018-12-22T06:18:47.413Z,0
2018-12-22T06:19:57.527Z,0
2018-12-22T06:21:07.587Z,0
2018-12-22T06:22:17.713Z,0
2018-12-22T06:23:29.240Z,0
2018-12-22T06:24:39.322Z,0
2018-12-22T06:25:49.396Z,0
2018-12-22T06:26:59.447Z,0
2018-12-22T06:28:09.502Z,0
2018-12-22T06:29:19.335Z,0
2018-12-22T06:30:29.130Z,0
2018-12-22T06:31:39.214Z,0
2018-12-22T06:32:49.270Z,0
2018-12-22T06:33:59.334Z,0
2018-12-22T06:35:08.912Z,0
2018-12-22T06:36:18.989Z,0
2018-12-22T06:37:29.053Z,0
2018-12-22T06:38:40.394Z,0
2018-12-22T06:39:50.605Z,0
2018-12-22T06:41:00.676Z,0
2018-12-22T06:42:10.738Z,0
2018-12-22T06:43:20.820Z,0
2018-12-22T06:44:30.647Z,0
2018-12-22T06:45:40.464Z,0
2018-12-22T06:46:50.286Z,0
2018-12-22T06:48:00.901Z,0
2018-12-22T06:49:11.882Z,0
2018-12-22T06:50:22.267Z,0
2018-12-22T06:51:32.076Z,0
2018-12-22T06:52:42.617Z,0
2018-12-22T06:53:52.699Z,0
2018-12-22T06:55:02.558Z,0
2018-12-22T06:56:12.370Z,0
2018-12-22T06:57:22.426Z,0
2018-12-22T06:58:32.491Z,0
2018-12-22T06:59:42.558Z,0
2018-12-22T07:00:52.636Z,0
2018-12-22T07:02:02.992Z,0
2018-12-22T07:03:13.078Z,0
2018-12-22T07:04:23.139Z,0
2018-12-22T07:05:33.255Z,0
2018-12-22T07:06:43.355Z,0
2018-12-22T07:07:53.161Z,0
2018-12-22T07:09:02.966Z,0
2018-12-22T07:10:13.020Z,0
2018-12-22T07:11:23.077Z,0
2018-12-22T07:12:33.164Z,0
2018-12-22T07:13:43.523Z,0
2018-12-22T07:14:53.328Z,0
2018-12-22T07:16:04.638Z,0
2018-12-22T07:17:14.714Z,0
2018-12-22T07:18:24.791Z,0
2018-12-22T07:19:34.876Z,0
2018-12-22T07:20:44.938Z,0
2018-12-22T07:21:55.247Z,0
2018-12-22T07:23:05.910Z,0
2018-12-22T07:24:15.994Z,0
2018-12-22T07:25:26.048Z,0
2018-12-22T07:26:36.111Z,0
2018-12-22T07:27:45.935Z,0
2018-12-22T07:28:56.316Z,0
2018-12-22T07:30:07.864Z,0
2018-12-22T07:31:17.973Z,0
2018-12-22T07:32:27.766Z,0
2018-12-22T07:33:37.558Z,5
2018-12-22T07:34:47.878Z,5
2018-12-22T07:35:57.948Z,5
2018-12-22T07:37:09.655Z,5
2018-12-22T07:38:19.711Z,5
2018-12-22T07:39:29.834Z,5
2018-12-22T07:40:39.689Z,5
2018-12-22T07:41:49.864Z,5
2018-12-22T07:43:00.145Z,5
2018-12-22T07:44:10.275Z,5
2018-12-22T07:45:20.328Z,5
2018-12-22T07:46:30.148Z,5
2018-12-22T07:47:40.214Z,5
2018-12-22T07:48:50.339Z,5
2018-12-22T07:50:03.275Z,5
2018-12-22T07:51:13.359Z,5
2018-12-22T07:52:23.439Z,5
2018-12-22T07:53:33.483Z,5
2018-12-22T07:54:43.773Z,10
2018-12-22T07:55:53.903Z,15
2018-12-22T07:57:03.980Z,15
2018-12-22T07:58:14.086Z,15
2018-12-22T07:59:24.242Z,15
2018-12-22T08:00:41.955Z,15
2018-12-22T08:01:52.043Z,15
2018-12-22T08:03:01.852Z,20
2018-12-22T08:04:11.684Z,25
2018-12-22T08:05:21.227Z,30
2018-12-22T08:06:31.311Z,35
2018-12-22T08:07:41.418Z,40
2018-12-22T08:08:51.509Z,40
2018-12-22T08:10:01.653Z,40
2018-12-22T08:11:11.729Z,40
2018-12-22T08:12:21.546Z,35
2018-12-22T08:13:31.831Z,35
2018-12-22T08:14:41.902Z,30
2018-12-22T08:15:52.797Z,30
2018-12-22T08:17:02.865Z,30
2018-12-22T08:18:12.960Z,25
2018-12-22T08:19:23.043Z,20
2018-12-22T08:20:33.118Z,20
2018-12-22T08:21:46.259Z,20
2018-12-22T08:22:56.657Z,20
2018-12-22T08:24:06.757Z,20
2018-12-22T08:25:16.577Z,20
2018-12-22T08:26:26.651Z,20
2018-12-22T08:27:36.512Z,25
2018-12-22T08:28:46.318Z,25
2018-12-22T08:29:56.437Z,20
2018-12-22T08:31:06.260Z,20
2018-12-22T08:32:16.076Z,20
2018-12-22T08:33:25.900Z,20
2018-12-22T08:34:35.974Z,20
2018-12-22T08:35:45.782Z,20
2018-12-22T08:36:56.994Z,20
2018-12-22T08:38:07.961Z,15
2018-12-22T08:39:18.104Z,20
2018-12-22T08:40:28.166Z,25
2018-12-22T08:41:38.244Z,20
2018-12-22T08:42:48.038Z,20
2018-12-22T08:43:57.858Z,30
2018-12-22T08:45:08.120Z,35
2018-12-22T08:46:18.200Z,45
2018-12-22T08:47:28.141Z,50
2018-12-22T08:48:38.218Z,60
2018-12-22T08:49:48.290Z,70
2018-12-22T08:50:58.805Z,80
2018-12-22T08:52:08.899Z,80
2018-12-22T08:53:19.050Z,70
2018-12-22T08:54:29.136Z,65
2018-12-22T08:55:38.949Z,55
2018-12-22T08:56:48.560Z,50
2018-12-22T08:57:58.692Z,45
2018-12-22T08:59:09.641Z,45
2018-12-22T09:00:20.493Z,45
2018-12-22T09:01:30.783Z,40
2018-12-22T09:02:40.873Z,40
2018-12-22T09:03:50.686Z,40
2018-12-22T09:05:00.879Z,40
2018-12-22T09:06:10.967Z,45
2018-12-22T09:07:21.048Z,40
2018-12-22T09:08:31.422Z,35
2018-12-22T09:09:41.396Z,35
2018-12-22T09:10:51.217Z,40
2018-12-22T09:12:02.064Z,45
2018-12-22T09:13:20.643Z,45
2018-12-22T09:14:30.962Z,45
2018-12-22T09:15:40.764Z,50
2018-12-22T09:16:50.702Z,50
2018-12-22T09:18:02.434Z,45
2018-12-22T09:19:12.638Z,40
2018-12-22T09:20:22.833Z,30
2018-12-22T09:21:32.975Z,30
2018-12-22T09:22:43.073Z,25
2018-12-22T09:23:53.156Z,25
2018-12-22T09:25:04.538Z,30
2018-12-22T09:26:15.874Z,30
2018-12-22T09:27:26.089Z,30
2018-12-22T09:28:36.413Z,30
2018-12-22T09:29:46.212Z,35
2018-12-22T09:31:03.363Z,45
2018-12-22T09:32:13.441Z,45
2018-12-22T09:33:23.506Z,50
2018-12-22T09:34:33.590Z,50
2018-12-22T09:35:43.397Z,50
2018-12-22T09:36:53.839Z,50
2018-12-22T09:38:05.376Z,50
2018-12-22T09:39:15.514Z,50
2018-12-22T09:40:25.589Z,50
2018-12-22T09:41:35.672Z,50
2018-12-22T09:42:45.802Z,45
2018-12-22T09:43:55.669Z,45
2018-12-22T09:45:05.477Z,55
2018-12-22T09:46:15.588Z,55
2018-12-22T09:47:25.499Z,55
2018-12-22T09:48:35.582Z,55
2018-12-22T09:49:45.155Z,55
2018-12-22T09:50:55.227Z,60
2018-12-22T09:52:06.145Z,70
2018-12-22T09:53:17.313Z,60
2018-12-22T09:54:27.171Z,55
2018-12-22T09:55:37.261Z,55
2018-12-22T09:56:47.337Z,55
2018-12-22T09:57:57.730Z,55
2018-12-22T09:59:08.992Z,55
2018-12-22T10:00:19.461Z,55
2018-12-22T10:01:29.538Z,60
2018-12-22T10:02:39.363Z,65
2018-12-22T10:03:49.448Z,70
2018-12-22T10:04:59.561Z,70
2018-12-22T10:06:09.721Z,70
2018-12-22T10:07:19.716Z,75
2018-12-22T10:08:29.542Z,70
2018-12-22T10:09:39.783Z,70
2018-12-22T10:10:49.863Z,70
2018-12-22T10:11:59.987Z,60
2018-12-22T10:13:10.050Z,55
2018-12-22T10:14:20.215Z,50
2018-12-22T10:15:30.310Z,45
2018-12-22T10:16:40.389Z,45
2018-12-22T10:17:50.505Z,45
2018-12-22T10:19:00.597Z,45
2018-12-22T10:20:10.427Z,50
2018-12-22T10:21:20.509Z,60
2018-12-22T10:22:30.327Z,65
2018-12-22T10:23:40.129Z,65
2018-12-22T10:24:50.212Z,75
2018-12-22T10:26:00.519Z,80
2018-12-22T10:27:11.503Z,80
2018-12-22T10:28:21.600Z,80
2018-12-22T10:29:31.192Z,80
2018-12-22T10:30:40.988Z,80
2018-12-22T10:31:50.795Z,80
2018-12-22T10:33:02.461Z,75
2018-12-22T10:34:12.556Z,75
2018-12-22T10:35:22.630Z,80
2018-12-22T10:36:32.196Z,85
2018-12-22T10:37:42.338Z,85
2018-12-22T10:38:51.908Z,85
2018-12-22T10:40:01.736Z,80
2018-12-22T10:41:11.658Z,75
2018-12-22T10:42:21.209Z,80
2018-12-22T10:43:31.299Z,90
2018-12-22T10:44:41.383Z,100
2018-12-22T10:45:51.207Z,105
2018-12-22T10:47:03.262Z,100
2018-12-22T10:48:13.353Z,90
2018-12-22T10:49:23.410Z,80
2018-12-22T10:50:33.487Z,70
2018-12-22T10:51:43.947Z,70
2018-12-22T10:52:56.067Z,75
2018-12-22T10:54:06.136Z,75
2018-12-22T10:55:16.230Z,85
2018-12-22T10:56:26.428Z,95
2018-12-22T10:57:36.499Z,110
2018-12-22T10:58:46.793Z,110
2018-12-22T10:59:56.949Z,100
2018-12-22T11:01:07.024Z,90
2018-12-22T11:02:17.107Z,80
2018-12-22T11:03:27.218Z,75
2018-12-22T11:04:37.289Z,70
2018-12-22T11:05:47.443Z,75
2018-12-22T11:06:57.531Z,70
2018-12-22T11:08:07.721Z,70
2018-12-22T11:09:19.635Z,75
2018-12-22T11:10:30.778Z,70
2018-12-22T11:11:41.820Z,75
2018-12-22T11:12:52.407Z,85
2018-12-22T11:14:03.208Z,100
2018-12-22T11:15:13.272Z,120
2018-12-22T11:16:23.439Z,140
2018-12-22T11:17:33.523Z,145
2018-12-22T11:18:43.613Z,135
2018-12-22T11:19:53.740Z,135
2018-12-22T11:21:03.827Z,140
2018-12-22T11:22:14.384Z,145
2018-12-22T11:23:30.243Z,140
2018-12-22T11:24:40.168Z,135
2018-12-22T11:25:50.257Z,135
2018-12-22T11:27:00.330Z,130
2018-12-22T11:28:10.451Z,125
2018-12-22T11:29:20.596Z,115
2018-12-22T11:30:30.425Z,115
2018-12-22T11:31:44.734Z,110
2018-12-22T11:32:54.821Z,130
2018-12-22T11:34:04.913Z,145
2018-12-22T11:35:14.482Z,135
2018-12-22T11:36:24.636Z,140
2018-12-22T11:37:34.458Z,145
2018-12-22T11:38:44.614Z,110
2018-12-22T11:39:54.792Z,100
2018-12-22T11:41:04.884Z,115
2018-12-22T11:42:14.947Z,125
2018-12-22T11:43:24.757Z,160
2018-12-22T11:44:34.867Z,165
2018-12-22T11:45:45.006Z,170
2018-12-22T11:46:55.167Z,175
2018-12-22T11:48:05.262Z,150
2018-12-22T11:49:15.099Z,170
2018-12-22T11:50:25.173Z,175
2018-12-22T11:51:35.260Z,155
2018-12-22T11:52:46.794Z,175
2018-12-22T11:53:56.625Z,145
2018-12-22T11:55:06.705Z,175
2018-12-22T11:56:16.839Z,220
2018-12-22T11:57:26.911Z,210
2018-12-22T11:58:38.266Z,185
2018-12-22T11:59:48.781Z,160
2018-12-22T12:00:58.857Z,110
2018-12-22T12:02:16.801Z,110
2018-12-22T12:03:26.703Z,105
2018-12-22T12:04:36.789Z,100
2018-12-22T12:05:46.897Z,120
2018-12-22T12:06:57.027Z,135
2018-12-22T12:08:07.847Z,130
2018-12-22T12:09:17.688Z,115
2018-12-22T12:10:27.500Z,95
2018-12-22T12:11:37.397Z,70
2018-12-22T12:12:47.452Z,55
2018-12-22T12:13:57.744Z,45
2018-12-22T12:15:07.839Z,45
2018-12-22T12:16:17.896Z,40
2018-12-22T12:17:28.004Z,35
2018-12-22T12:18:38.109Z,30
2018-12-22T12:19:47.960Z,30
2018-12-22T12:20:58.119Z,30
2018-12-22T12:22:08.589Z,35
2018-12-22T12:23:18.704Z,40
2018-12-22T12:24:28.524Z,40
2018-12-22T12:25:38.597Z,35
2018-12-22T12:26:48.797Z,35
2018-12-22T12:27:58.900Z,30
2018-12-22T12:29:08.992Z,30
2018-12-22T12:30:19.083Z,30
2018-12-22T12:31:28.909Z,25
2018-12-22T12:32:38.774Z,15
2018-12-22T12:33:48.627Z,15
2018-12-22T12:34:58.564Z,15
2018-12-22T12:36:09.248Z,15
2018-12-22T12:37:19.366Z,15
2018-12-22T12:38:29.459Z,10
2018-12-22T12:39:39.592Z,10
2018-12-22T12:40:49.697Z,10
2018-12-22T12:41:59.798Z,15
2018-12-22T12:43:12.798Z,20
2018-12-22T12:44:22.911Z,25
2018-12-22T12:45:32.785Z,30
2018-12-22T12:46:44.188Z,30
2018-12-22T12:47:54.333Z,35
2018-12-22T12:49:04.408Z,30
2018-12-22T12:50:14.212Z,25
2018-12-22T12:51:24.315Z,35
2018-12-22T12:52:34.403Z,45
2018-12-22T12:53:44.472Z,50
2018-12-22T12:54:54.577Z,55
2018-12-22T12:56:04.443Z,50
2018-12-22T12:57:14.531Z,40
2018-12-22T12:58:24.846Z,40
2018-12-22T12:59:35.027Z,35
2018-12-22T13:00:45.187Z,30
2018-12-22T13:02:03.432Z,30
2018-12-22T13:03:15.285Z,30
2018-12-22T13:04:25.106Z,30
2018-12-22T13:05:35.177Z,30
2018-12-22T13:06:45.275Z,35
2018-12-22T13:07:55.100Z,35
2018-12-22T13:09:07.413Z,35
2018-12-22T13:10:17.219Z,35
2018-12-22T13:11:27.038Z,35
2018-12-22T13:12:37.124Z,35
2018-12-22T13:13:47.244Z,30
2018-12-22T13:14:57.319Z,25
2018-12-22T13:16:08.979Z,25
2018-12-22T13:17:19.094Z,25
2018-12-22T13:18:29.175Z,25
2018-12-22T13:19:39.242Z,25
2018-12-22T13:20:49.562Z,25
2018-12-22T13:21:59.619Z,25
2018-12-22T13:23:09.937Z,30
2018-12-22T13:24:21.075Z,30
2018-12-22T13:25:31.172Z,30
2018-12-22T13:26:46.552Z,35
2018-12-22T13:27:56.631Z,35
2018-12-22T13:29:07.041Z,35
2018-12-22T13:30:17.100Z,35
2018-12-22T13:31:27.157Z,40
2018-12-22T13:32:37.272Z,40
2018-12-22T13:33:47.816Z,40
2018-12-22T13:34:57.668Z,40
2018-12-22T13:36:07.822Z,40
2018-12-22T13:37:18.042Z,45
2018-12-22T13:38:28.122Z,45
2018-12-22T13:39:38.157Z,45
2018-12-22T13:40:48.294Z,45
2018-12-22T13:41:58.386Z,45
2018-12-22T13:43:08.457Z,45
2018-12-22T13:44:18.288Z,45
2018-12-22T13:45:28.644Z,45
2018-12-22T13:46:38.953Z,45
2018-12-22T13:47:49.909Z,45
2018-12-22T13:49:02.964Z,45
2018-12-22T13:50:13.920Z,45
2018-12-22T13:51:24.612Z,45
2018-12-22T13:52:34.718Z,45
2018-12-22T13:53:44.822Z,45
2018-12-22T13:54:54.907Z,45
2018-12-22T13:56:06.210Z,50
2018-12-22T13:57:16.277Z,55
2018-12-22T13:58:26.332Z,45
2018-12-22T13:59:36.418Z,40
2018-12-22T14:00:46.299Z,40
2018-12-22T14:01:56.496Z,40
2018-12-22T14:03:06.289Z,40
2018-12-22T14:04:16.363Z,40
2018-12-22T14:05:26.547Z,40
2018-12-22T14:06:36.469Z,40
2018-12-22T14:07:46.285Z,35
2018-12-22T14:08:56.374Z,35
2018-12-22T14:10:06.455Z,35
2018-12-22T14:11:16.271Z,35
2018-12-22T14:12:26.346Z,35
2018-12-22T14:13:36.425Z,35
2018-12-22T14:14:46.489Z,35
2018-12-22T14:15:56.314Z,35
2018-12-22T14:17:06.312Z,30
2018-12-22T14:18:16.572Z,30
2018-12-22T14:19:26.679Z,30
2018-12-22T14:20:36.769Z,30
2018-12-22T14:21:46.852Z,30
2018-12-22T14:22:56.674Z,30
2018-12-22T14:24:06.785Z,30
2018-12-22T14:25:16.865Z,25
2018-12-22T14:26:26.984Z,25
2018-12-22T14:27:36.866Z,25
2018-12-22T14:28:46.944Z,25
2018-12-22T14:29:56.991Z,25
2018-12-22T14:31:07.080Z,20
2018-12-22T14:32:17.203Z,20
2018-12-22T14:33:27.036Z,20
2018-12-22T14:34:37.124Z,20
2018-12-22T14:35:47.247Z,15
2018-12-22T14:36:57.320Z,15
2018-12-22T14:38:07.538Z,15
2018-12-22T14:39:17.375Z,15
2018-12-22T14:40:27.201Z,15
2018-12-22T14:41:37.132Z,15
2018-12-22T14:42:46.967Z,15
2018-12-22T14:43:57.039Z,15
2018-12-22T14:45:06.932Z,10
2018-12-22T14:46:17.157Z,10
2018-12-22T14:47:27.334Z,10
2018-12-22T14:48:37.183Z,10
2018-12-22T14:49:47.267Z,10
2018-12-22T14:50:57.342Z,10
2018-12-22T14:52:07.150Z,5
2018-12-22T14:53:17.232Z,5
2018-12-22T14:54:27.072Z,5
2018-12-22T14:55:36.918Z,5
2018-12-22T14:56:47.042Z,5
2018-12-22T14:57:57.118Z,0
2018-12-22T14:59:08.419Z,0
2018-12-22T15:00:18.819Z,0
2018-12-22T15:01:28.927Z,0
2018-12-22T15:02:45.000Z,0
2018-12-22T15:03:55.068Z,0
2018-12-22T15:05:04.740Z,0
2018-12-22T15:06:14.837Z,0
2018-12-22T15:07:25.082Z,0
2018-12-22T15:08:35.159Z,0
2018-12-22T15:09:45.467Z,0
2018-12-22T15:10:55.579Z,0
2018-12-22T15:12:05.666Z,0
2018-12-22T15:13:15.804Z,0
2018-12-22T15:14:25.753Z,0
2018-12-22T15:15:35.912Z,0
2018-12-22T15:16:45.998Z,0
2018-12-22T15:17:55.812Z,0
2018-12-22T15:19:06.046Z,0
2018-12-22T15:20:16.123Z,0
2018-12-22T15:21:25.940Z,0
2018-12-22T15:22:35.979Z,0
2018-12-22T15:23:46.319Z,0
2018-12-22T15:24:56.409Z,0
2018-12-22T15:26:06.467Z,0
2018-12-22T15:27:16.273Z,0
2018-12-22T15:28:26.373Z,0
2018-12-22T15:29:36.658Z,0
2018-12-22T15:30:46.808Z,0
2018-12-22T15:31:56.879Z,0
2018-12-22T15:33:06.725Z,0
2018-12-22T15:34:16.984Z,0
2018-12-22T15:35:26.806Z,0
2018-12-22T15:36:36.962Z,0
2018-12-22T15:37:47.071Z,0
2018-12-22T15:38:56.899Z,0
2018-12-22T15:40:06.991Z,0
2018-12-22T15:41:16.819Z,0
2018-12-22T15:42:26.912Z,0
2018-12-22T15:43:36.991Z,0
2018-12-22T15:44:47.066Z,0
2018-12-22T15:45:57.152Z,0
2018-12-22T15:47:07.216Z,0
2018-12-22T15:48:17.305Z,0
2018-12-22T15:49:27.445Z,0
2018-12-22T15:50:37.588Z,0
2018-12-22T15:51:47.931Z,0
2018-12-22T15:52:58.012Z,0
2018-12-22T15:54:08.661Z,0
2018-12-22T15:55:18.736Z,0
2018-12-22T15:56:28.575Z,0
2018-12-22T15:57:38.399Z,0
2018-12-22T15:58:47.969Z,0
2018-12-22T15:59:58.148Z,0
2018-12-22T16:01:08.466Z,0
2018-12-22T16:02:18.888Z,0
2018-12-22T16:03:29.043Z,0
2018-12-22T16:04:39.113Z,0
2018-12-22T16:05:49.204Z,0
2018-12-22T16:06:59.003Z,0
2018-12-22T16:08:09.074Z,0
2018-12-22T16:09:19.140Z,0
2018-12-22T16:10:28.999Z,0
2018-12-22T16:11:39.142Z,0
2018-12-22T16:12:49.347Z,0
2018-12-22T16:13:59.424Z,0
2018-12-22T16:15:09.496Z,0
2018-12-22T16:16:19.646Z,0
2018-12-22T16:17:29.795Z,0
2018-12-22T16:18:39.992Z,0
2018-12-22T16:19:50.089Z,0
2018-12-22T16:20:59.957Z,0
2018-12-22T16:22:10.053Z,0
2018-12-22T16:23:20.126Z,0
2018-12-22T16:24:30.226Z,0
2018-12-22T16:25:40.305Z,0
2018-12-22T16:26:50.142Z,0
2018-12-22T16:28:02.440Z,0
2018-12-22T16:29:12.352Z,0
2018-12-22T16:30:22.196Z,0
2018-12-22T16:31:32.299Z,0
2018-12-22T16:32:43.861Z,0
2018-12-22T16:33:53.929Z,0
2018-12-22T16:35:04.024Z,0
2018-12-22T16:36:14.098Z,0
2018-12-22T16:37:24.182Z,0
2018-12-22T16:38:34.011Z,0
2018-12-22T16:39:44.107Z,0
2018-12-22T16:40:53.693Z,0
2018-12-22T16:42:04.924Z,0
2018-12-22T16:43:14.770Z,0
2018-12-22T16:44:24.586Z,0
2018-12-22T16:45:34.403Z,0
2018-12-22T16:46:44.501Z,0
2018-12-22T16:47:54.601Z,0
2018-12-22T16:49:04.670Z,0
2018-12-22T16:50:14.758Z,0
2018-12-22T16:51:24.843Z,0
2018-12-22T16:52:34.930Z,0
2018-12-22T16:53:44.748Z,0
2018-12-22T16:54:54.555Z,0
2018-12-22T16:56:04.713Z,0
2018-12-22T16:57:14.798Z,0
2018-12-22T16:58:24.871Z,0
2018-12-22T16:59:34.688Z,0
2018-12-22T17:00:44.494Z,0
2018-12-22T17:01:54.563Z,0
2018-12-22T17:03:13.054Z,0
2018-12-22T17:04:23.130Z,0
2018-12-22T17:05:32.936Z,0
2018-12-22T17:06:42.999Z,0
2018-12-22T17:07:53.053Z,0
2018-12-22T17:09:04.916Z,0
2018-12-22T17:10:14.493Z,0
2018-12-22T17:11:24.564Z,0
2018-12-22T17:12:34.609Z,0
2018-12-22T17:13:44.688Z,0
2018-12-22T17:14:54.745Z,0
2018-12-22T17:16:04.829Z,0
2018-12-22T17:17:15.138Z,0
2018-12-22T17:18:25.223Z,0
2018-12-22T17:19:35.300Z,0
2018-12-22T17:20:45.128Z,0
2018-12-22T17:21:55.214Z,0
2018-12-22T17:23:04.751Z,0
2018-12-22T17:24:14.825Z,0
2018-12-22T17:25:24.680Z,0
2018-12-22T17:26:34.751Z,0
2018-12-22T17:27:45.136Z,0
2018-12-22T17:28:55.224Z,0
2018-12-22T17:30:05.328Z,0
2018-12-22T17:31:15.412Z,0
2018-12-22T17:32:25.539Z,0